<?xml version="1.0" encoding="UTF-8" standalone="no" ?>
<gpx xmlns="http://www.topografix.com/GPX/1/1" xmlns:xsi="http://www.w3.org/2001/XMLSchema-instance" xsi:schemaLocation="http://www.topografix.com/GPX/1/1 http://www.topografix.com/GPX/1/1/gpx.xsd" version="1.1" creator="VisuGPX - https://www.visugpx.com">
  <metadata>
    <name>Chassagnes_les Oliviers</name>
    <desc><![CDATA[A découvrir ce petit sentier au milieu des arbres les plus septentrionaux de la culture des oliviers.]]></desc>
  </metadata>
  <trk>
    <name><![CDATA[Chassagnes_2017-03-17 13:43]]></name>
    <desc><![CDATA[<p>Heure de départ: 03/17/2017 13:43<br/>Heure d'arrivée: 03/17/2017 15:18<br/>Distance: 3 km (01:34)<br/>Temps déplacement: 00:51<br/>Vitesse moyenne: 1,87 km/h<br/>Vitesse moyenne mouv.: 3,46 km/h<br/>Vitesse Max.: 7,17 km/h<br/>Altitude minimale: 142 m<br/>Altitude maximale: 274 m<br/>Vitesse de montée: 195 m/h<br/>Vitesse de descente: -224 m/h<br/>Gain d'altitude: 157 m<br/>Perte d'altitude: -157 m<br/>Temps de montée: 00:48<br/>Temps de descente: 00:42<br/></p><hr align="center" width="480" style="height: 2px; width: 517px"/>]]></desc>
    <trkseg>
      <trkpt lat="44.4039" lon="4.16386">
        <ele>239.6</ele>
        <time>2017-03-17T12:43:24Z</time>
      </trkpt>
      <trkpt lat="44.40409" lon="4.16389">
        <ele>242.05</ele>
        <time>2017-03-17T12:43:57Z</time>
      </trkpt>
      <trkpt lat="44.40428" lon="4.16388">
        <ele>238.01</ele>
        <time>2017-03-17T12:44:12Z</time>
      </trkpt>
      <trkpt lat="44.40446" lon="4.16387">
        <ele>237.33</ele>
        <time>2017-03-17T12:44:24Z</time>
      </trkpt>
      <trkpt lat="44.40464" lon="4.16392">
        <ele>238.47</ele>
        <time>2017-03-17T12:44:42Z</time>
      </trkpt>
      <trkpt lat="44.40451" lon="4.1641">
        <ele>231.7</ele>
        <time>2017-03-17T12:47:38Z</time>
      </trkpt>
      <trkpt lat="44.40456" lon="4.16435">
        <ele>228.14</ele>
        <time>2017-03-17T12:48:38Z</time>
      </trkpt>
      <trkpt lat="44.40452" lon="4.1646">
        <ele>220.99</ele>
        <time>2017-03-17T12:50:10Z</time>
      </trkpt>
      <trkpt lat="44.4045" lon="4.16486">
        <ele>218.76</ele>
        <time>2017-03-17T12:50:44Z</time>
      </trkpt>
      <trkpt lat="44.40443" lon="4.16508">
        <ele>212.69</ele>
        <time>2017-03-17T12:51:02Z</time>
      </trkpt>
      <trkpt lat="44.4045" lon="4.16531">
        <ele>212.79</ele>
        <time>2017-03-17T12:51:29Z</time>
      </trkpt>
      <trkpt lat="44.40448" lon="4.16557">
        <ele>207.75</ele>
        <time>2017-03-17T12:52:09Z</time>
      </trkpt>
      <trkpt lat="44.40455" lon="4.1658">
        <ele>203.63</ele>
        <time>2017-03-17T12:52:38Z</time>
      </trkpt>
      <trkpt lat="44.40462" lon="4.16606">
        <ele>198.4</ele>
        <time>2017-03-17T12:53:04Z</time>
      </trkpt>
      <trkpt lat="44.40456" lon="4.16631">
        <ele>186.69</ele>
        <time>2017-03-17T12:55:24Z</time>
      </trkpt>
      <trkpt lat="44.40467" lon="4.16653">
        <ele>176.49</ele>
        <time>2017-03-17T12:58:30Z</time>
      </trkpt>
      <trkpt lat="44.40482" lon="4.16667">
        <ele>170.49</ele>
        <time>2017-03-17T12:59:16Z</time>
      </trkpt>
      <trkpt lat="44.40497" lon="4.1668">
        <ele>168.99</ele>
        <time>2017-03-17T13:00:01Z</time>
      </trkpt>
      <trkpt lat="44.40515" lon="4.16678">
        <ele>168.71</ele>
        <time>2017-03-17T13:00:35Z</time>
      </trkpt>
      <trkpt lat="44.40533" lon="4.16681">
        <ele>170.69</ele>
        <time>2017-03-17T13:01:03Z</time>
      </trkpt>
      <trkpt lat="44.4055" lon="4.16671">
        <ele>170.69</ele>
        <time>2017-03-17T13:01:31Z</time>
      </trkpt>
      <trkpt lat="44.40568" lon="4.16667">
        <ele>159.45</ele>
        <time>2017-03-17T13:02:21Z</time>
      </trkpt>
      <trkpt lat="44.40586" lon="4.1666">
        <ele>161.75</ele>
        <time>2017-03-17T13:03:13Z</time>
      </trkpt>
      <trkpt lat="44.40605" lon="4.16653">
        <ele>157.21</ele>
        <time>2017-03-17T13:03:34Z</time>
      </trkpt>
      <trkpt lat="44.40622" lon="4.16667">
        <ele>162.96</ele>
        <time>2017-03-17T13:03:53Z</time>
      </trkpt>
      <trkpt lat="44.4064" lon="4.16675">
        <ele>160.16</ele>
        <time>2017-03-17T13:04:15Z</time>
      </trkpt>
      <trkpt lat="44.40657" lon="4.16684">
        <ele>162.65</ele>
        <time>2017-03-17T13:04:45Z</time>
      </trkpt>
      <trkpt lat="44.40656" lon="4.1671">
        <ele>159.9</ele>
        <time>2017-03-17T13:05:07Z</time>
      </trkpt>
      <trkpt lat="44.40657" lon="4.16736">
        <ele>162.39</ele>
        <time>2017-03-17T13:05:22Z</time>
      </trkpt>
      <trkpt lat="44.40651" lon="4.1676">
        <ele>159.82</ele>
        <time>2017-03-17T13:07:01Z</time>
      </trkpt>
      <trkpt lat="44.40643" lon="4.16783">
        <ele>154.69</ele>
        <time>2017-03-17T13:07:18Z</time>
      </trkpt>
      <trkpt lat="44.40651" lon="4.16806">
        <ele>153.78</ele>
        <time>2017-03-17T13:07:56Z</time>
      </trkpt>
      <trkpt lat="44.40669" lon="4.16803">
        <ele>149.97</ele>
        <time>2017-03-17T13:08:21Z</time>
      </trkpt>
      <trkpt lat="44.40686" lon="4.16814">
        <ele>149.58</ele>
        <time>2017-03-17T13:08:36Z</time>
      </trkpt>
      <trkpt lat="44.40706" lon="4.16808">
        <ele>156.41</ele>
        <time>2017-03-17T13:08:55Z</time>
      </trkpt>
      <trkpt lat="44.40726" lon="4.16806">
        <ele>152.78</ele>
        <time>2017-03-17T13:09:15Z</time>
      </trkpt>
      <trkpt lat="44.40744" lon="4.16803">
        <ele>155.66</ele>
        <time>2017-03-17T13:09:34Z</time>
      </trkpt>
      <trkpt lat="44.40762" lon="4.16797">
        <ele>150.99</ele>
        <time>2017-03-17T13:09:53Z</time>
      </trkpt>
      <trkpt lat="44.40781" lon="4.16792">
        <ele>146.17</ele>
        <time>2017-03-17T13:10:11Z</time>
      </trkpt>
      <trkpt lat="44.408" lon="4.16785">
        <ele>145.01</ele>
        <time>2017-03-17T13:10:28Z</time>
      </trkpt>
      <trkpt lat="44.40819" lon="4.16784">
        <ele>142.13</ele>
        <time>2017-03-17T13:10:50Z</time>
      </trkpt>
      <trkpt lat="44.40837" lon="4.16779">
        <ele>152.55</ele>
        <time>2017-03-17T13:11:20Z</time>
      </trkpt>
      <trkpt lat="44.40823" lon="4.16762">
        <ele>155.98</ele>
        <time>2017-03-17T13:11:59Z</time>
      </trkpt>
      <trkpt lat="44.4081" lon="4.16744">
        <ele>157.43</ele>
        <time>2017-03-17T13:12:43Z</time>
      </trkpt>
      <trkpt lat="44.40798" lon="4.16724">
        <ele>162.7</ele>
        <time>2017-03-17T13:13:28Z</time>
      </trkpt>
      <trkpt lat="44.40784" lon="4.16708">
        <ele>167.99</ele>
        <time>2017-03-17T13:14:08Z</time>
      </trkpt>
      <trkpt lat="44.40771" lon="4.16689">
        <ele>167.97</ele>
        <time>2017-03-17T13:14:38Z</time>
      </trkpt>
      <trkpt lat="44.40762" lon="4.16666">
        <ele>179.7</ele>
        <time>2017-03-17T13:17:39Z</time>
      </trkpt>
      <trkpt lat="44.40762" lon="4.1664">
        <ele>181.6</ele>
        <time>2017-03-17T13:18:09Z</time>
      </trkpt>
      <trkpt lat="44.40752" lon="4.16618">
        <ele>179.74</ele>
        <time>2017-03-17T13:21:26Z</time>
      </trkpt>
      <trkpt lat="44.40766" lon="4.16636">
        <ele>181.77</ele>
        <time>2017-03-17T13:23:19Z</time>
      </trkpt>
      <trkpt lat="44.40783" lon="4.16647">
        <ele>178.89</ele>
        <time>2017-03-17T13:23:43Z</time>
      </trkpt>
      <trkpt lat="44.40787" lon="4.16621">
        <ele>179.36</ele>
        <time>2017-03-17T13:24:00Z</time>
      </trkpt>
      <trkpt lat="44.40777" lon="4.166">
        <ele>186.07</ele>
        <time>2017-03-17T13:24:31Z</time>
      </trkpt>
      <trkpt lat="44.40769" lon="4.16577">
        <ele>188.31</ele>
        <time>2017-03-17T13:25:22Z</time>
      </trkpt>
      <trkpt lat="44.40776" lon="4.16553">
        <ele>182.44</ele>
        <time>2017-03-17T13:25:35Z</time>
      </trkpt>
      <trkpt lat="44.40794" lon="4.16543">
        <ele>186.08</ele>
        <time>2017-03-17T13:25:53Z</time>
      </trkpt>
      <trkpt lat="44.40786" lon="4.1652">
        <ele>184.45</ele>
        <time>2017-03-17T13:26:21Z</time>
      </trkpt>
      <trkpt lat="44.40802" lon="4.16507">
        <ele>180.07</ele>
        <time>2017-03-17T13:26:53Z</time>
      </trkpt>
      <trkpt lat="44.40783" lon="4.16503">
        <ele>183.59</ele>
        <time>2017-03-17T13:27:42Z</time>
      </trkpt>
      <trkpt lat="44.4077" lon="4.16487">
        <ele>191.83</ele>
        <time>2017-03-17T13:28:08Z</time>
      </trkpt>
      <trkpt lat="44.40754" lon="4.16473">
        <ele>194.74</ele>
        <time>2017-03-17T13:29:10Z</time>
      </trkpt>
      <trkpt lat="44.40739" lon="4.16457">
        <ele>199.69</ele>
        <time>2017-03-17T13:29:32Z</time>
      </trkpt>
      <trkpt lat="44.40722" lon="4.16449">
        <ele>202.6</ele>
        <time>2017-03-17T13:29:53Z</time>
      </trkpt>
      <trkpt lat="44.40704" lon="4.16453">
        <ele>201.13</ele>
        <time>2017-03-17T13:30:47Z</time>
      </trkpt>
      <trkpt lat="44.40686" lon="4.16457">
        <ele>207.84</ele>
        <time>2017-03-17T13:31:08Z</time>
      </trkpt>
      <trkpt lat="44.40668" lon="4.16448">
        <ele>206.87</ele>
        <time>2017-03-17T13:31:37Z</time>
      </trkpt>
      <trkpt lat="44.40653" lon="4.16433">
        <ele>215.21</ele>
        <time>2017-03-17T13:32:40Z</time>
      </trkpt>
      <trkpt lat="44.40635" lon="4.16427">
        <ele>219.66</ele>
        <time>2017-03-17T13:32:54Z</time>
      </trkpt>
      <trkpt lat="44.40617" lon="4.16427">
        <ele>223.69</ele>
        <time>2017-03-17T13:33:22Z</time>
      </trkpt>
      <trkpt lat="44.40599" lon="4.16435">
        <ele>223.67</ele>
        <time>2017-03-17T13:33:37Z</time>
      </trkpt>
      <trkpt lat="44.40581" lon="4.16436">
        <ele>228.73</ele>
        <time>2017-03-17T13:34:28Z</time>
      </trkpt>
      <trkpt lat="44.40563" lon="4.16443">
        <ele>235.51</ele>
        <time>2017-03-17T13:34:52Z</time>
      </trkpt>
      <trkpt lat="44.40557" lon="4.16418">
        <ele>245.6</ele>
        <time>2017-03-17T13:40:37Z</time>
      </trkpt>
      <trkpt lat="44.40538" lon="4.16416">
        <ele>244.99</ele>
        <time>2017-03-17T13:41:00Z</time>
      </trkpt>
      <trkpt lat="44.40519" lon="4.16413">
        <ele>243.61</ele>
        <time>2017-03-17T13:41:16Z</time>
      </trkpt>
      <trkpt lat="44.40506" lon="4.16395">
        <ele>241.72</ele>
        <time>2017-03-17T13:41:43Z</time>
      </trkpt>
      <trkpt lat="44.40492" lon="4.16379">
        <ele>242.69</ele>
        <time>2017-03-17T13:42:01Z</time>
      </trkpt>
      <trkpt lat="44.40477" lon="4.16365">
        <ele>241.66</ele>
        <time>2017-03-17T13:42:22Z</time>
      </trkpt>
      <trkpt lat="44.4046" lon="4.16354">
        <ele>242.69</ele>
        <time>2017-03-17T13:42:40Z</time>
      </trkpt>
      <trkpt lat="44.40442" lon="4.16355">
        <ele>242.69</ele>
        <time>2017-03-17T13:42:56Z</time>
      </trkpt>
      <trkpt lat="44.40424" lon="4.16348">
        <ele>245.6</ele>
        <time>2017-03-17T13:43:15Z</time>
      </trkpt>
      <trkpt lat="44.40408" lon="4.16333">
        <ele>244.75</ele>
        <time>2017-03-17T13:43:32Z</time>
      </trkpt>
      <trkpt lat="44.40393" lon="4.16319">
        <ele>244.5</ele>
        <time>2017-03-17T13:43:47Z</time>
      </trkpt>
      <trkpt lat="44.40378" lon="4.16306">
        <ele>243.72</ele>
        <time>2017-03-17T13:44:06Z</time>
      </trkpt>
      <trkpt lat="44.4036" lon="4.16298">
        <ele>242.9</ele>
        <time>2017-03-17T13:44:23Z</time>
      </trkpt>
      <trkpt lat="44.40342" lon="4.16291">
        <ele>242.39</ele>
        <time>2017-03-17T13:44:40Z</time>
      </trkpt>
      <trkpt lat="44.40331" lon="4.16269">
        <ele>242.05</ele>
        <time>2017-03-17T13:44:58Z</time>
      </trkpt>
      <trkpt lat="44.40321" lon="4.16248">
        <ele>242.67</ele>
        <time>2017-03-17T13:45:13Z</time>
      </trkpt>
      <trkpt lat="44.40303" lon="4.16239">
        <ele>243.69</ele>
        <time>2017-03-17T13:45:36Z</time>
      </trkpt>
      <trkpt lat="44.40289" lon="4.16219">
        <ele>235.56</ele>
        <time>2017-03-17T13:47:59Z</time>
      </trkpt>
      <trkpt lat="44.40276" lon="4.162">
        <ele>236.49</ele>
        <time>2017-03-17T13:48:07Z</time>
      </trkpt>
      <trkpt lat="44.40263" lon="4.16182">
        <ele>241.62</ele>
        <time>2017-03-17T13:48:22Z</time>
      </trkpt>
      <trkpt lat="44.40251" lon="4.16161">
        <ele>242.66</ele>
        <time>2017-03-17T13:48:42Z</time>
      </trkpt>
      <trkpt lat="44.40237" lon="4.16145">
        <ele>248.78</ele>
        <time>2017-03-17T13:49:00Z</time>
      </trkpt>
      <trkpt lat="44.40223" lon="4.16127">
        <ele>243.75</ele>
        <time>2017-03-17T13:49:19Z</time>
      </trkpt>
      <trkpt lat="44.40209" lon="4.16111">
        <ele>249.28</ele>
        <time>2017-03-17T13:49:37Z</time>
      </trkpt>
      <trkpt lat="44.40225" lon="4.16096">
        <ele>248.34</ele>
        <time>2017-03-17T13:49:53Z</time>
      </trkpt>
      <trkpt lat="44.40238" lon="4.16077">
        <ele>245.84</ele>
        <time>2017-03-17T13:50:22Z</time>
      </trkpt>
      <trkpt lat="44.40245" lon="4.16053">
        <ele>243.04</ele>
        <time>2017-03-17T13:50:33Z</time>
      </trkpt>
      <trkpt lat="44.40254" lon="4.16031">
        <ele>244.98</ele>
        <time>2017-03-17T13:50:55Z</time>
      </trkpt>
      <trkpt lat="44.40272" lon="4.16022">
        <ele>242.29</ele>
        <time>2017-03-17T13:51:06Z</time>
      </trkpt>
      <trkpt lat="44.4029" lon="4.16013">
        <ele>245.87</ele>
        <time>2017-03-17T13:51:34Z</time>
      </trkpt>
      <trkpt lat="44.40308" lon="4.16014">
        <ele>245.28</ele>
        <time>2017-03-17T13:51:55Z</time>
      </trkpt>
      <trkpt lat="44.40326" lon="4.16009">
        <ele>250.81</ele>
        <time>2017-03-17T13:52:21Z</time>
      </trkpt>
      <trkpt lat="44.40344" lon="4.16009">
        <ele>257.81</ele>
        <time>2017-03-17T13:52:55Z</time>
      </trkpt>
      <trkpt lat="44.40363" lon="4.16004">
        <ele>259.67</ele>
        <time>2017-03-17T13:53:11Z</time>
      </trkpt>
      <trkpt lat="44.40382" lon="4.16007">
        <ele>254.03</ele>
        <time>2017-03-17T13:53:37Z</time>
      </trkpt>
      <trkpt lat="44.40399" lon="4.16022">
        <ele>260.07</ele>
        <time>2017-03-17T13:54:02Z</time>
      </trkpt>
      <trkpt lat="44.40411" lon="4.16042">
        <ele>261.18</ele>
        <time>2017-03-17T13:54:18Z</time>
      </trkpt>
      <trkpt lat="44.40424" lon="4.16062">
        <ele>258.39</ele>
        <time>2017-03-17T13:54:41Z</time>
      </trkpt>
      <trkpt lat="44.40443" lon="4.16069">
        <ele>256.29</ele>
        <time>2017-03-17T13:55:06Z</time>
      </trkpt>
      <trkpt lat="44.4046" lon="4.16065">
        <ele>264.37</ele>
        <time>2017-03-17T13:55:20Z</time>
      </trkpt>
      <trkpt lat="44.40479" lon="4.16061">
        <ele>267.54</ele>
        <time>2017-03-17T13:55:38Z</time>
      </trkpt>
      <trkpt lat="44.40495" lon="4.16048">
        <ele>268.71</ele>
        <time>2017-03-17T13:55:56Z</time>
      </trkpt>
      <trkpt lat="44.40512" lon="4.1604">
        <ele>263.99</ele>
        <time>2017-03-17T13:56:33Z</time>
      </trkpt>
      <trkpt lat="44.4053" lon="4.16044">
        <ele>260.48</ele>
        <time>2017-03-17T13:56:56Z</time>
      </trkpt>
      <trkpt lat="44.40548" lon="4.16049">
        <ele>268.69</ele>
        <time>2017-03-17T13:58:26Z</time>
      </trkpt>
      <trkpt lat="44.40566" lon="4.16059">
        <ele>266.42</ele>
        <time>2017-03-17T13:58:47Z</time>
      </trkpt>
      <trkpt lat="44.40583" lon="4.16066">
        <ele>273.42</ele>
        <time>2017-03-17T14:01:31Z</time>
      </trkpt>
      <trkpt lat="44.406" lon="4.16076">
        <ele>272.69</ele>
        <time>2017-03-17T14:01:51Z</time>
      </trkpt>
      <trkpt lat="44.40617" lon="4.16087">
        <ele>271.72</ele>
        <time>2017-03-17T14:02:20Z</time>
      </trkpt>
      <trkpt lat="44.4062" lon="4.16113">
        <ele>273.11</ele>
        <time>2017-03-17T14:02:46Z</time>
      </trkpt>
      <trkpt lat="44.40631" lon="4.16134">
        <ele>273.69</ele>
        <time>2017-03-17T14:03:11Z</time>
      </trkpt>
      <trkpt lat="44.40636" lon="4.16159">
        <ele>272.99</ele>
        <time>2017-03-17T14:03:53Z</time>
      </trkpt>
      <trkpt lat="44.4064" lon="4.16186">
        <ele>269.38</ele>
        <time>2017-03-17T14:04:22Z</time>
      </trkpt>
      <trkpt lat="44.40652" lon="4.16206">
        <ele>274.77</ele>
        <time>2017-03-17T14:04:41Z</time>
      </trkpt>
      <trkpt lat="44.40665" lon="4.16224">
        <ele>273.79</ele>
        <time>2017-03-17T14:05:12Z</time>
      </trkpt>
      <trkpt lat="44.4068" lon="4.16241">
        <ele>270.64</ele>
        <time>2017-03-17T14:05:27Z</time>
      </trkpt>
      <trkpt lat="44.40688" lon="4.16264">
        <ele>272.71</ele>
        <time>2017-03-17T14:05:53Z</time>
      </trkpt>
      <trkpt lat="44.40683" lon="4.16289">
        <ele>271.78</ele>
        <time>2017-03-17T14:08:21Z</time>
      </trkpt>
      <trkpt lat="44.40676" lon="4.16312">
        <ele>265.4</ele>
        <time>2017-03-17T14:10:02Z</time>
      </trkpt>
      <trkpt lat="44.40658" lon="4.16315">
        <ele>264.51</ele>
        <time>2017-03-17T14:12:21Z</time>
      </trkpt>
      <trkpt lat="44.40644" lon="4.16299">
        <ele>258.18</ele>
        <time>2017-03-17T14:13:34Z</time>
      </trkpt>
      <trkpt lat="44.40629" lon="4.16284">
        <ele>255.3</ele>
        <time>2017-03-17T14:13:46Z</time>
      </trkpt>
      <trkpt lat="44.40613" lon="4.1627">
        <ele>251.94</ele>
        <time>2017-03-17T14:14:54Z</time>
      </trkpt>
      <trkpt lat="44.40598" lon="4.16258">
        <ele>259.02</ele>
        <time>2017-03-17T14:15:14Z</time>
      </trkpt>
      <trkpt lat="44.40583" lon="4.16274">
        <ele>250.01</ele>
        <time>2017-03-17T14:16:12Z</time>
      </trkpt>
      <trkpt lat="44.40569" lon="4.16292">
        <ele>241.28</ele>
        <time>2017-03-17T14:16:54Z</time>
      </trkpt>
      <trkpt lat="44.40558" lon="4.16311">
        <ele>255.73</ele>
        <time>2017-03-17T14:17:20Z</time>
      </trkpt>
      <trkpt lat="44.40545" lon="4.16329">
        <ele>240.77</ele>
        <time>2017-03-17T14:17:33Z</time>
      </trkpt>
      <trkpt lat="44.40534" lon="4.16349">
        <ele>250.88</ele>
        <time>2017-03-17T14:17:46Z</time>
      </trkpt>
      <trkpt lat="44.40531" lon="4.16375">
        <ele>233.67</ele>
        <time>2017-03-17T14:18:06Z</time>
      </trkpt>
      <trkpt lat="44.40523" lon="4.16399">
        <ele>239.71</ele>
        <time>2017-03-17T14:18:23Z</time>
      </trkpt>
    </trkseg>
  </trk>
</gpx>